Detmold, Texas
Current Conditions -  °F | °C
As of 12:48 AM on Friday 31 Oct 2014 (Local Time) from KGRK Reporting Station
Broken Clouds Broken Clouds  
Wind Chill: 66°   Ceiling: 6000
Heat Index: 66°   Visibility: 10mi
Dew Point: 57°   Wind: 7mph
Humidity: 73%   Direction: 320°NW
Pressure: 30.16"   Gusts: NA
Location:  30.5951°N, 97.1399°W
Report Text: KGRK 310548Z AUTO 32006KT 10SM BKN060 BKN090 19/14 A3016 RMK AO2 LTG DSNT SW RAB0538E0548
Loading
Personal Weather Stations






























Interactive Weather Map
Tropical Storm Tracking
New forecast layout! Learn more

10-Day Weather Forecast

Advertisements
Track Severe Weather on mobile